sensor_id;sensor_type;location;lat;lon;timestamp;pressure;altitude;pressure_sealevel;temperature;humidity
40864;BME280;26582;47.524;19.012;2024-01-11T00:00:49;100240.06;;;-0.33;60.49
40864;BME280;26582;47.524;19.012;2024-01-11T00:03:17;100239.84;;;-0.27;60.78
40864;BME280;26582;47.524;19.012;2024-01-11T00:05:43;100237.25;;;-0.27;60.66
40864;BME280;26582;47.524;19.012;2024-01-11T00:08:10;100239.31;;;-0.36;60.90
40864;BME280;26582;47.524;19.012;2024-01-11T00:10:37;100232.91;;;-0.28;60.98
40864;BME280;26582;47.524;19.012;2024-01-11T00:13:04;100233.97;;;-0.33;60.17
40864;BME280;26582;47.524;19.012;2024-01-11T00:15:30;100227.09;;;-0.37;60.00
40864;BME280;26582;47.524;19.012;2024-01-11T00:17:57;100215.97;;;-0.44;59.23
40864;BME280;26582;47.524;19.012;2024-01-11T00:20:25;100225.72;;;-0.19;59.62
40864;BME280;26582;47.524;19.012;2024-01-11T00:22:52;100234.94;;;-0.08;59.65
40864;BME280;26582;47.524;19.012;2024-01-11T00:25:19;100228.00;;;-0.09;59.39
40864;BME280;26582;47.524;19.012;2024-01-11T00:27:45;100224.19;;;0.02;58.91
40864;BME280;26582;47.524;19.012;2024-01-11T00:30:12;100227.72;;;0.01;58.68
40864;BME280;26582;47.524;19.012;2024-01-11T00:32:38;100217.03;;;0.07;58.92
40864;BME280;26582;47.524;19.012;2024-01-11T00:35:05;100216.91;;;0.11;58.71
40864;BME280;26582;47.524;19.012;2024-01-11T00:37:34;100213.38;;;0.12;58.31
40864;BME280;26582;47.524;19.012;2024-01-11T00:40:01;100218.75;;;0.08;56.92
40864;BME280;26582;47.524;19.012;2024-01-11T00:42:27;100220.25;;;0.15;55.72
40864;BME280;26582;47.524;19.012;2024-01-11T00:44:54;100203.75;;;0.13;56.82
40864;BME280;26582;47.524;19.012;2024-01-11T00:47:21;100201.97;;;0.13;57.33
40864;BME280;26582;47.524;19.012;2024-01-11T00:49:47;100206.44;;;0.10;57.65
40864;BME280;26582;47.524;19.012;2024-01-11T00:52:14;100201.97;;;0.13;56.90
40864;BME280;26582;47.524;19.012;2024-01-11T00:54:42;100203.84;;;0.10;57.48
40864;BME280;26582;47.524;19.012;2024-01-11T00:57:08;100203.69;;;0.14;56.20
40864;BME280;26582;47.524;19.012;2024-01-11T00:59:35;100194.31;;;0.07;56.36
40864;BME280;26582;47.524;19.012;2024-01-11T01:02:02;100191.66;;;0.09;55.81
40864;BME280;26582;47.524;19.012;2024-01-11T01:04:29;100191.59;;;0.10;56.89
40864;BME280;26582;47.524;19.012;2024-01-11T01:06:56;100193.22;;;0.14;55.93
40864;BME280;26582;47.524;19.012;2024-01-11T01:09:22;100182.00;;;0.11;55.94
40864;BME280;26582;47.524;19.012;2024-01-11T01:11:51;100188.53;;;0.24;55.99
40864;BME280;26582;47.524;19.012;2024-01-11T01:14:17;100179.25;;;0.14;55.79
40864;BME280;26582;47.524;19.012;2024-01-11T01:16:44;100168.09;;;0.09;55.70
40864;BME280;26582;47.524;19.012;2024-01-11T01:19:11;100177.41;;;0.17;55.79
40864;BME280;26582;47.524;19.012;2024-01-11T01:21:37;100177.56;;;0.13;55.68
40864;BME280;26582;47.524;19.012;2024-01-11T01:24:04;100173.31;;;0.09;54.64
40864;BME280;26582;47.524;19.012;2024-01-11T01:26:31;100173.97;;;0.15;54.76
40864;BME280;26582;47.524;19.012;2024-01-11T01:28:59;100169.78;;;0.10;54.49
40864;BME280;26582;47.524;19.012;2024-01-11T01:31:25;100164.41;;;0.14;53.55
40864;BME280;26582;47.524;19.012;2024-01-11T01:33:52;100162.34;;;0.24;53.32
40864;BME280;26582;47.524;19.012;2024-01-11T01:36:19;100155.59;;;-0.10;53.61
40864;BME280;26582;47.524;19.012;2024-01-11T01:38:45;100169.28;;;-0.02;52.83
40864;BME280;26582;47.524;19.012;2024-01-11T01:41:12;100163.25;;;-0.04;54.70
40864;BME280;26582;47.524;19.012;2024-01-11T01:43:39;100158.72;;;0.02;54.03
40864;BME280;26582;47.524;19.012;2024-01-11T01:46:07;100157.00;;;0.01;53.11
40864;BME280;26582;47.524;19.012;2024-01-11T01:48:34;100156.81;;;0.07;52.95
40864;BME280;26582;47.524;19.012;2024-01-11T01:51:01;100149.09;;;0.02;52.70
40864;BME280;26582;47.524;19.012;2024-01-11T01:53:28;100143.75;;;0.05;53.30
40864;BME280;26582;47.524;19.012;2024-01-11T01:55:56;100140.41;;;0.02;51.82
40864;BME280;26582;47.524;19.012;2024-01-11T01:58:23;100139.41;;;0.04;52.20
40864;BME280;26582;47.524;19.012;2024-01-11T02:00:51;100137.66;;;0.05;52.04
40864;BME280;26582;47.524;19.012;2024-01-11T02:03:19;100132.38;;;0.06;52.30
40864;BME280;26582;47.524;19.012;2024-01-11T02:05:47;100127.03;;;0.09;52.54
40864;BME280;26582;47.524;19.012;2024-01-11T02:08:16;100119.19;;;0.09;53.19
40864;BME280;26582;47.524;19.012;2024-01-11T02:10:43;100121.78;;;0.09;52.13
40864;BME280;26582;47.524;19.012;2024-01-11T02:13:11;100122.56;;;0.13;52.21
40864;BME280;26582;47.524;19.012;2024-01-11T02:15:37;100112.28;;;0.07;52.18
40864;BME280;26582;47.524;19.012;2024-01-11T02:18:04;100107.78;;;0.10;52.90
40864;BME280;26582;47.524;19.012;2024-01-11T02:20:32;100104.47;;;0.05;52.80
40864;BME280;26582;47.524;19.012;2024-01-11T02:23:04;100105.22;;;0.09;52.48
40864;BME280;26582;47.524;19.012;2024-01-11T02:25:33;100107.91;;;0.07;52.23
40864;BME280;26582;47.524;19.012;2024-01-11T02:27:59;100097.44;;;0.07;53.02
40864;BME280;26582;47.524;19.012;2024-01-11T02:30:26;100099.09;;;0.10;52.04
40864;BME280;26582;47.524;19.012;2024-01-11T02:32:53;100101.06;;;0.03;51.77
40864;BME280;26582;47.524;19.012;2024-01-11T02:35:20;100088.88;;;0.02;52.17
40864;BME280;26582;47.524;19.012;2024-01-11T02:37:48;100089.66;;;0.04;51.69
40864;BME280;26582;47.524;19.012;2024-01-11T02:40:14;100089.81;;;-0.01;51.95
40864;BME280;26582;47.524;19.012;2024-01-11T02:42:42;100082.78;;;0.02;51.91
40864;BME280;26582;47.524;19.012;2024-01-11T02:45:10;100080.41;;;-0.06;51.41
40864;BME280;26582;47.524;19.012;2024-01-11T02:47:37;100074.75;;;-0.19;50.67
40864;BME280;26582;47.524;19.012;2024-01-11T02:50:04;100081.13;;;-0.28;50.61
40864;BME280;26582;47.524;19.012;2024-01-11T02:52:32;100077.94;;;-0.37;49.73
40864;BME280;26582;47.524;19.012;2024-01-11T02:54:59;100061.31;;;-0.35;49.60
40864;BME280;26582;47.524;19.012;2024-01-11T02:57:25;100054.94;;;-0.28;50.42
40864;BME280;26582;47.524;19.012;2024-01-11T02:59:53;100058.47;;;-0.29;49.55
40864;BME280;26582;47.524;19.012;2024-01-11T03:02:20;100059.69;;;-0.39;49.65
40864;BME280;26582;47.524;19.012;2024-01-11T03:04:47;100056.78;;;-0.30;49.06
40864;BME280;26582;47.524;19.012;2024-01-11T03:07:14;100047.91;;;-0.25;49.12
40864;BME280;26582;47.524;19.012;2024-01-11T03:09:41;100044.34;;;-0.23;48.99
40864;BME280;26582;47.524;19.012;2024-01-11T03:12:07;100044.47;;;-0.26;49.88
40864;BME280;26582;47.524;19.012;2024-01-11T03:14:34;100039.47;;;-0.34;48.71
40864;BME280;26582;47.524;19.012;2024-01-11T03:17:02;100035.72;;;-0.27;49.17
40864;BME280;26582;47.524;19.012;2024-01-11T03:19:30;100037.09;;;-0.41;49.13
40864;BME280;26582;47.524;19.012;2024-01-11T03:21:56;100034.72;;;-0.49;49.74
40864;BME280;26582;47.524;19.012;2024-01-11T03:24:23;100033.66;;;-0.43;51.08
40864;BME280;26582;47.524;19.012;2024-01-11T03:26:50;100035.19;;;-0.36;51.32
40864;BME280;26582;47.524;19.012;2024-01-11T03:29:16;100019.63;;;-0.41;50.82
40864;BME280;26582;47.524;19.012;2024-01-11T03:31:43;100028.00;;;-0.56;51.09
40864;BME280;26582;47.524;19.012;2024-01-11T03:34:11;100020.16;;;-0.58;50.84
40864;BME280;26582;47.524;19.012;2024-01-11T03:36:38;100017.31;;;-0.50;50.97
40864;BME280;26582;47.524;19.012;2024-01-11T03:39:05;100015.41;;;-0.45;50.51
40864;BME280;26582;47.524;19.012;2024-01-11T03:41:32;100008.25;;;-0.40;50.56
40864;BME280;26582;47.524;19.012;2024-01-11T03:43:58;100012.13;;;-0.25;49.33
40864;BME280;26582;47.524;19.012;2024-01-11T03:46:26;100000.81;;;-0.25;49.93
40864;BME280;26582;47.524;19.012;2024-01-11T03:48:52;100002.41;;;-0.21;50.63
40864;BME280;26582;47.524;19.012;2024-01-11T03:51:22;100004.13;;;-0.20;50.31
40864;BME280;26582;47.524;19.012;2024-01-11T03:53:49;100002.59;;;-0.28;49.10
40864;BME280;26582;47.524;19.012;2024-01-11T03:56:15;99993.66;;;-0.20;49.34
40864;BME280;26582;47.524;19.012;2024-01-11T03:58:42;99991.13;;;-0.23;49.19
40864;BME280;26582;47.524;19.012;2024-01-11T04:01:10;99987.38;;;-0.16;48.96
40864;BME280;26582;47.524;19.012;2024-01-11T04:03:36;99983.81;;;-0.14;48.07
40864;BME280;26582;47.524;19.012;2024-01-11T04:06:04;99988.44;;;-0.20;48.64
40864;BME280;26582;47.524;19.012;2024-01-11T04:08:32;99988.84;;;-0.08;48.51
40864;BME280;26582;47.524;19.012;2024-01-11T04:11:01;99990.06;;;-0.18;49.75
40864;BME280;26582;47.524;19.012;2024-01-11T04:13:28;100003.25;;;-0.21;48.86
40864;BME280;26582;47.524;19.012;2024-01-11T04:15:55;100005.72;;;-0.16;48.79
40864;BME280;26582;47.524;19.012;2024-01-11T04:18:21;100006.75;;;-0.20;49.67
40864;BME280;26582;47.524;19.012;2024-01-11T04:20:48;100006.47;;;-0.13;50.04
40864;BME280;26582;47.524;19.012;2024-01-11T04:23:15;100006.53;;;-0.14;49.18
40864;BME280;26582;47.524;19.012;2024-01-11T04:25:43;100001.78;;;-0.03;48.51
40864;BME280;26582;47.524;19.012;2024-01-11T04:28:09;99989.47;;;-0.01;48.33
40864;BME280;26582;47.524;19.012;2024-01-11T04:30:36;100002.47;;;0.02;49.30
40864;BME280;26582;47.524;19.012;2024-01-11T04:33:03;100003.31;;;0.03;47.74
40864;BME280;26582;47.524;19.012;2024-01-11T04:35:30;100011.13;;;0.04;49.18
40864;BME280;26582;47.524;19.012;2024-01-11T04:37:56;99999.63;;;0.08;48.67
40864;BME280;26582;47.524;19.012;2024-01-11T04:40:23;100001.56;;;0.03;48.46
40864;BME280;26582;47.524;19.012;2024-01-11T04:42:51;99998.25;;;-0.02;48.23
40864;BME280;26582;47.524;19.012;2024-01-11T04:45:18;99995.63;;;-0.02;49.31
40864;BME280;26582;47.524;19.012;2024-01-11T04:47:45;99981.56;;;-0.24;48.96
40864;BME280;26582;47.524;19.012;2024-01-11T04:50:11;99990.75;;;-0.13;48.72
40864;BME280;26582;47.524;19.012;2024-01-11T04:52:38;99992.09;;;-0.26;48.65
40864;BME280;26582;47.524;19.012;2024-01-11T04:55:05;100000.81;;;-0.25;48.40
40864;BME280;26582;47.524;19.012;2024-01-11T04:57:32;100004.44;;;-0.30;49.31
40864;BME280;26582;47.524;19.012;2024-01-11T05:00:00;99992.00;;;-0.23;49.02
40864;BME280;26582;47.524;19.012;2024-01-11T05:02:26;99999.25;;;-0.31;49.06
40864;BME280;26582;47.524;19.012;2024-01-11T05:04:53;99992.19;;;-0.29;49.46
40864;BME280;26582;47.524;19.012;2024-01-11T05:07:20;99990.66;;;-0.35;50.36
40864;BME280;26582;47.524;19.012;2024-01-11T05:09:46;99989.66;;;-0.31;50.58
40864;BME280;26582;47.524;19.012;2024-01-11T05:12:13;99988.94;;;-0.36;50.40
40864;BME280;26582;47.524;19.012;2024-01-11T05:14:40;99989.59;;;-0.29;50.62
40864;BME280;26582;47.524;19.012;2024-01-11T05:17:08;99994.19;;;-0.36;51.33
40864;BME280;26582;47.524;19.012;2024-01-11T05:19:35;99988.94;;;-0.36;50.98
40864;BME280;26582;47.524;19.012;2024-01-11T05:22:01;99989.78;;;-0.35;51.95
40864;BME280;26582;47.524;19.012;2024-01-11T05:24:28;99981.28;;;-0.42;51.70
40864;BME280;26582;47.524;19.012;2024-01-11T05:26:55;99990.44;;;-0.29;51.72
40864;BME280;26582;47.524;19.012;2024-01-11T05:29:21;99985.19;;;-0.29;52.74
40864;BME280;26582;47.524;19.012;2024-01-11T05:31:48;99980.13;;;-0.33;52.44
40864;BME280;26582;47.524;19.012;2024-01-11T05:34:16;99993.22;;;-0.33;53.25
40864;BME280;26582;47.524;19.012;2024-01-11T05:36:43;99996.53;;;-0.28;52.86
40864;BME280;26582;47.524;19.012;2024-01-11T05:39:09;100001.00;;;-0.32;53.28
40864;BME280;26582;47.524;19.012;2024-01-11T05:41:36;100001.97;;;-0.34;53.29
40864;BME280;26582;47.524;19.012;2024-01-11T05:44:03;100000.06;;;-0.29;53.70
40864;BME280;26582;47.524;19.012;2024-01-11T05:46:30;100001.66;;;-0.25;53.29
40864;BME280;26582;47.524;19.012;2024-01-11T05:48:56;99992.97;;;-0.25;53.73
40864;BME280;26582;47.524;19.012;2024-01-11T05:51:24;99992.66;;;-0.43;54.37
40864;BME280;26582;47.524;19.012;2024-01-11T05:53:52;100001.41;;;-0.44;54.03
40864;BME280;26582;47.524;19.012;2024-01-11T05:56:19;100002.53;;;-0.51;55.09
40864;BME280;26582;47.524;19.012;2024-01-11T05:58:46;100003.38;;;-0.77;55.65
40864;BME280;26582;47.524;19.012;2024-01-11T06:01:13;100003.97;;;-0.69;55.81
40864;BME280;26582;47.524;19.012;2024-01-11T06:03:39;99986.72;;;-0.74;56.71
40864;BME280;26582;47.524;19.012;2024-01-11T06:06:06;99994.91;;;-0.57;55.72
40864;BME280;26582;47.524;19.012;2024-01-11T06:08:34;99998.38;;;-0.58;56.17
40864;BME280;26582;47.524;19.012;2024-01-11T06:11:02;99992.81;;;-0.74;57.35
40864;BME280;26582;47.524;19.012;2024-01-11T06:13:29;99985.38;;;-0.60;56.73
40864;BME280;26582;47.524;19.012;2024-01-11T06:15:56;99974.84;;;-0.58;57.46
40864;BME280;26582;47.524;19.012;2024-01-11T06:18:22;99973.06;;;-0.56;56.47
40864;BME280;26582;47.524;19.012;2024-01-11T06:20:49;99975.00;;;-0.63;57.65
40864;BME280;26582;47.524;19.012;2024-01-11T06:23:16;99977.66;;;-0.64;57.90
40864;BME280;26582;47.524;19.012;2024-01-11T06:25:45;99975.66;;;-0.56;57.60
40864;BME280;26582;47.524;19.012;2024-01-11T06:28:12;99969.59;;;-0.57;57.37
40864;BME280;26582;47.524;19.012;2024-01-11T06:30:39;99965.28;;;-0.86;58.86
40864;BME280;26582;47.524;19.012;2024-01-11T06:33:05;99977.78;;;-0.67;58.04
40864;BME280;26582;47.524;19.012;2024-01-11T06:35:32;99974.97;;;-0.61;59.25
40864;BME280;26582;47.524;19.012;2024-01-11T06:37:59;99976.63;;;-0.59;58.30
40864;BME280;26582;47.524;19.012;2024-01-11T06:40:26;99972.34;;;-0.61;58.41
40864;BME280;26582;47.524;19.012;2024-01-11T06:42:54;99973.63;;;-0.73;59.10
40864;BME280;26582;47.524;19.012;2024-01-11T06:45:20;99976.66;;;-0.87;59.58
40864;BME280;26582;47.524;19.012;2024-01-11T06:47:47;99969.78;;;-1.17;60.76
40864;BME280;26582;47.524;19.012;2024-01-11T06:50:14;99975.78;;;-1.43;62.19
40864;BME280;26582;47.524;19.012;2024-01-11T06:52:41;99972.31;;;-1.44;62.16
40864;BME280;26582;47.524;19.012;2024-01-11T06:55:08;99960.31;;;-1.80;63.73
40864;BME280;26582;47.524;19.012;2024-01-11T06:57:36;99971.25;;;-1.99;64.98
40864;BME280;26582;47.524;19.012;2024-01-11T07:00:05;99971.91;;;-1.91;64.52
40864;BME280;26582;47.524;19.012;2024-01-11T07:02:33;99976.22;;;-1.59;64.01
40864;BME280;26582;47.524;19.012;2024-01-11T07:05:00;99978.91;;;-1.30;63.67
40864;BME280;26582;47.524;19.012;2024-01-11T07:07:27;99978.19;;;-1.36;63.12
40864;BME280;26582;47.524;19.012;2024-01-11T07:09:54;99969.78;;;-1.47;64.02
40864;BME280;26582;47.524;19.012;2024-01-11T07:12:21;99973.22;;;-1.45;64.17
40864;BME280;26582;47.524;19.012;2024-01-11T07:14:48;99978.91;;;-1.30;64.13
40864;BME280;26582;47.524;19.012;2024-01-11T07:17:16;99970.97;;;-1.27;63.23
40864;BME280;26582;47.524;19.012;2024-01-11T07:19:42;99963.56;;;-1.13;62.76
40864;BME280;26582;47.524;19.012;2024-01-11T07:22:09;99959.56;;;-1.25;63.55
40864;BME280;26582;47.524;19.012;2024-01-11T07:24:36;99949.72;;;-1.17;62.85
40864;BME280;26582;47.524;19.012;2024-01-11T07:27:04;99962.66;;;-1.12;62.81
40864;BME280;26582;47.524;19.012;2024-01-11T07:29:30;99967.47;;;-0.98;62.46
40864;BME280;26582;47.524;19.012;2024-01-11T07:31:58;99969.53;;;-0.82;62.63
40864;BME280;26582;47.524;19.012;2024-01-11T07:34:26;99966.69;;;-0.49;62.27
40864;BME280;26582;47.524;19.012;2024-01-11T07:36:53;99952.50;;;-0.42;61.74
40864;BME280;26582;47.524;19.012;2024-01-11T07:39:19;99963.81;;;-0.15;60.52
40864;BME280;26582;47.524;19.012;2024-01-11T07:41:47;99955.22;;;0.05;60.10
40864;BME280;26582;47.524;19.012;2024-01-11T07:44:14;99956.41;;;0.21;58.77
40864;BME280;26582;47.524;19.012;2024-01-11T07:46:41;99967.00;;;0.42;57.86
40864;BME280;26582;47.524;19.012;2024-01-11T07:49:07;99959.44;;;0.56;57.57
40864;BME280;26582;47.524;19.012;2024-01-11T07:51:36;99945.84;;;0.70;57.17
40864;BME280;26582;47.524;19.012;2024-01-11T07:54:04;99958.94;;;0.70;56.76
40864;BME280;26582;47.524;19.012;2024-01-11T07:56:31;99955.06;;;1.02;56.36
40864;BME280;26582;47.524;19.012;2024-01-11T07:58:58;99951.69;;;0.76;55.86
40864;BME280;26582;47.524;19.012;2024-01-11T08:01:24;99938.16;;;1.09;54.80
40864;BME280;26582;47.524;19.012;2024-01-11T08:03:51;99934.44;;;1.57;54.40
40864;BME280;26582;47.524;19.012;2024-01-11T08:06:18;99928.78;;;1.66;53.51
40864;BME280;26582;47.524;19.012;2024-01-11T08:08:46;99924.84;;;1.76;53.33
40864;BME280;26582;47.524;19.012;2024-01-11T08:11:17;99929.13;;;1.16;53.56
40864;BME280;26582;47.524;19.012;2024-01-11T08:13:44;99923.47;;;1.47;54.34
40864;BME280;26582;47.524;19.012;2024-01-11T08:16:15;99914.66;;;1.28;54.16
40864;BME280;26582;47.524;19.012;2024-01-11T08:18:42;99921.16;;;1.40;53.71
40864;BME280;26582;47.524;19.012;2024-01-11T08:21:09;99910.38;;;1.46;53.38
40864;BME280;26582;47.524;19.012;2024-01-11T08:23:37;99899.25;;;1.61;52.81
40864;BME280;26582;47.524;19.012;2024-01-11T08:26:06;99904.25;;;1.67;51.72
40864;BME280;26582;47.524;19.012;2024-01-11T08:28:33;99900.94;;;1.82;51.29
40864;BME280;26582;47.524;19.012;2024-01-11T08:31:00;99906.84;;;1.88;51.13
40864;BME280;26582;47.524;19.012;2024-01-11T08:33:29;99906.91;;;1.66;51.10
40864;BME280;26582;47.524;19.012;2024-01-11T08:35:56;99915.06;;;1.80;50.86
40864;BME280;26582;47.524;19.012;2024-01-11T08:38:23;99901.28;;;1.75;50.27
40864;BME280;26582;47.524;19.012;2024-01-11T08:40:50;99895.19;;;1.74;48.77
40864;BME280;26582;47.524;19.012;2024-01-11T08:43:18;99897.53;;;1.60;48.61
40864;BME280;26582;47.524;19.012;2024-01-11T08:45:45;99893.22;;;1.59;48.94
40864;BME280;26582;47.524;19.012;2024-01-11T08:48:12;99889.34;;;1.68;48.91
40864;BME280;26582;47.524;19.012;2024-01-11T08:50:38;99891.38;;;1.61;48.33
40864;BME280;26582;47.524;19.012;2024-01-11T08:53:05;99895.09;;;1.55;47.60
40864;BME280;26582;47.524;19.012;2024-01-11T08:55:32;99891.06;;;1.88;47.30
40864;BME280;26582;47.524;19.012;2024-01-11T08:57:59;99904.81;;;2.13;47.01
40864;BME280;26582;47.524;19.012;2024-01-11T09:00:27;99909.06;;;2.36;46.21
40864;BME280;26582;47.524;19.012;2024-01-11T09:02:54;99915.94;;;2.39;45.31
40864;BME280;26582;47.524;19.012;2024-01-11T09:05:21;99903.28;;;2.47;45.38
40864;BME280;26582;47.524;19.012;2024-01-11T09:07:47;99897.78;;;2.14;44.29
40864;BME280;26582;47.524;19.012;2024-01-11T09:10:14;99908.75;;;2.23;44.21
40864;BME280;26582;47.524;19.012;2024-01-11T09:12:41;99897.81;;;2.32;45.30
40864;BME280;26582;47.524;19.012;2024-01-11T09:15:08;99874.59;;;2.23;44.47
40864;BME280;26582;47.524;19.012;2024-01-11T09:17:37;99895.63;;;2.42;44.52
40864;BME280;26582;47.524;19.012;2024-01-11T09:20:04;99899.09;;;2.43;44.04
40864;BME280;26582;47.524;19.012;2024-01-11T09:22:31;99892.84;;;2.26;43.36
40864;BME280;26582;47.524;19.012;2024-01-11T09:24:58;99889.91;;;1.95;43.81
40864;BME280;26582;47.524;19.012;2024-01-11T09:27:25;99891.56;;;2.16;43.79
40864;BME280;26582;47.524;19.012;2024-01-11T09:29:51;99878.44;;;2.35;43.44
40864;BME280;26582;47.524;19.012;2024-01-11T09:32:18;99863.28;;;2.40;43.45
40864;BME280;26582;47.524;19.012;2024-01-11T09:34:47;99858.91;;;2.41;43.87
40864;BME280;26582;47.524;19.012;2024-01-11T09:37:13;99851.78;;;2.43;43.36
40864;BME280;26582;47.524;19.012;2024-01-11T09:39:40;99841.22;;;2.06;43.74
40864;BME280;26582;47.524;19.012;2024-01-11T09:42:08;99824.53;;;2.26;43.27
40864;BME280;26582;47.524;19.012;2024-01-11T09:44:36;99819.56;;;2.20;42.03
40864;BME280;26582;47.524;19.012;2024-01-11T09:47:05;99817.56;;;2.25;40.98
40864;BME280;26582;47.524;19.012;2024-01-11T09:49:33;99808.47;;;2.32;40.59
40864;BME280;26582;47.524;19.012;2024-01-11T09:52:05;99811.13;;;2.50;40.74
40864;BME280;26582;47.524;19.012;2024-01-11T09:54:34;99806.88;;;2.47;40.03
40864;BME280;26582;47.524;19.012;2024-01-11T09:57:02;99789.25;;;2.49;40.11
40864;BME280;26582;47.524;19.012;2024-01-11T09:59:30;99793.53;;;2.52;40.68
40864;BME280;26582;47.524;19.012;2024-01-11T10:01:57;99795.09;;;2.56;40.15
40864;BME280;26582;47.524;19.012;2024-01-11T10:04:25;99792.59;;;2.70;40.94
40864;BME280;26582;47.524;19.012;2024-01-11T10:06:52;99784.34;;;2.78;40.81
40864;BME280;26582;47.524;19.012;2024-01-11T10:09:21;99782.03;;;2.89;40.27
40864;BME280;26582;47.524;19.012;2024-01-11T10:11:48;99778.94;;;2.98;39.68
40864;BME280;26582;47.524;19.012;2024-01-11T10:14:16;99775.53;;;2.96;40.28
40864;BME280;26582;47.524;19.012;2024-01-11T10:16:43;99763.22;;;2.97;40.18
40864;BME280;26582;47.524;19.012;2024-01-11T10:19:10;99740.94;;;2.86;40.06
40864;BME280;26582;47.524;19.012;2024-01-11T10:21:39;99757.03;;;3.15;40.25
40864;BME280;26582;47.524;19.012;2024-01-11T10:24:05;99764.75;;;3.18;40.25
40864;BME280;26582;47.524;19.012;2024-01-11T10:26:34;99760.81;;;3.27;40.79
40864;BME280;26582;47.524;19.012;2024-01-11T10:29:00;99759.00;;;3.45;40.61
40864;BME280;26582;47.524;19.012;2024-01-11T10:31:28;99750.09;;;3.47;40.68
40864;BME280;26582;47.524;19.012;2024-01-11T10:33:55;99758.91;;;3.46;40.10
40864;BME280;26582;47.524;19.012;2024-01-11T10:36:22;99752.63;;;3.49;39.57
40864;BME280;26582;47.524;19.012;2024-01-11T10:38:49;99753.59;;;3.30;40.28
40864;BME280;26582;47.524;19.012;2024-01-11T10:41:18;99756.00;;;3.18;42.14
40864;BME280;26582;47.524;19.012;2024-01-11T10:43:48;99746.25;;;2.50;43.29
40864;BME280;26582;47.524;19.012;2024-01-11T10:46:18;99747.88;;;2.35;44.50
40864;BME280;26582;47.524;19.012;2024-01-11T10:48:53;99737.16;;;2.75;44.48
40864;BME280;26582;47.524;19.012;2024-01-11T10:51:22;99739.41;;;2.82;43.47
40864;BME280;26582;47.524;19.012;2024-01-11T10:53:51;99735.09;;;2.28;44.14
40864;BME280;26582;47.524;19.012;2024-01-11T10:56:19;99719.41;;;2.26;44.99
40864;BME280;26582;47.524;19.012;2024-01-11T10:58:49;99708.91;;;2.44;44.24
40864;BME280;26582;47.524;19.012;2024-01-11T11:01:16;99702.50;;;2.32;45.10
40864;BME280;26582;47.524;19.012;2024-01-11T11:03:44;99691.13;;;2.49;45.30
40864;BME280;26582;47.524;19.012;2024-01-11T11:06:12;99703.69;;;2.61;44.07
40864;BME280;26582;47.524;19.012;2024-01-11T11:08:40;99701.06;;;2.61;44.54
40864;BME280;26582;47.524;19.012;2024-01-11T11:11:07;99696.31;;;2.85;44.11
40864;BME280;26582;47.524;19.012;2024-01-11T11:13:34;99691.59;;;2.74;43.87
40864;BME280;26582;47.524;19.012;2024-01-11T11:16:03;99693.59;;;3.04;44.39
40864;BME280;26582;47.524;19.012;2024-01-11T11:18:30;99700.84;;;3.16;44.84
40864;BME280;26582;47.524;19.012;2024-01-11T11:20:57;99687.59;;;3.18;43.74
40864;BME280;26582;47.524;19.012;2024-01-11T11:23:24;99693.81;;;3.32;43.87
40864;BME280;26582;47.524;19.012;2024-01-11T11:25:54;99686.97;;;3.46;43.42
40864;BME280;26582;47.524;19.012;2024-01-11T11:28:21;99694.28;;;3.40;43.65
40864;BME280;26582;47.524;19.012;2024-01-11T11:30:49;99673.22;;;3.40;43.67
40864;BME280;26582;47.524;19.012;2024-01-11T11:33:20;99675.72;;;3.26;44.31
40864;BME280;26582;47.524;19.012;2024-01-11T11:35:49;99663.31;;;3.28;44.93
40864;BME280;26582;47.524;19.012;2024-01-11T11:38:18;99657.25;;;3.59;43.92
40864;BME280;26582;47.524;19.012;2024-01-11T11:40:47;99639.50;;;3.47;43.26
40864;BME280;26582;47.524;19.012;2024-01-11T11:43:15;99651.72;;;3.64;43.66
40864;BME280;26582;47.524;19.012;2024-01-11T11:45:43;99657.94;;;3.95;43.01
40864;BME280;26582;47.524;19.012;2024-01-11T11:48:48;99659.38;;;4.00;41.81
40864;BME280;26582;47.524;19.012;2024-01-11T11:51:17;99657.03;;;4.26;41.13
40864;BME280;26582;47.524;19.012;2024-01-11T11:53:47;99640.94;;;4.30;40.73
40864;BME280;26582;47.524;19.012;2024-01-11T11:56:14;99646.81;;;4.35;41.32
40864;BME280;26582;47.524;19.012;2024-01-11T11:58:42;99635.34;;;4.21;41.03
40864;BME280;26582;47.524;19.012;2024-01-11T12:01:10;99638.00;;;4.21;40.64
40864;BME280;26582;47.524;19.012;2024-01-11T12:03:37;99637.19;;;3.88;41.09
40864;BME280;26582;47.524;19.012;2024-01-11T12:06:07;99629.13;;;4.07;41.07
40864;BME280;26582;47.524;19.012;2024-01-11T12:08:35;99630.47;;;3.99;41.47
40864;BME280;26582;47.524;19.012;2024-01-11T12:11:03;99622.75;;;4.26;41.75
40864;BME280;26582;47.524;19.012;2024-01-11T12:13:31;99612.91;;;4.43;40.27
40864;BME280;26582;47.524;19.012;2024-01-11T12:15:58;99607.72;;;4.42;40.54
40864;BME280;26582;47.524;19.012;2024-01-11T12:18:24;99609.34;;;4.44;40.56
40864;BME280;26582;47.524;19.012;2024-01-11T12:20:51;99609.94;;;4.64;40.76
40864;BME280;26582;47.524;19.012;2024-01-11T12:23:20;99617.03;;;4.78;40.13
40864;BME280;26582;47.524;19.012;2024-01-11T12:25:47;99605.16;;;4.99;40.28
40864;BME280;26582;47.524;19.012;2024-01-11T12:28:14;99597.53;;;4.94;40.17
40864;BME280;26582;47.524;19.012;2024-01-11T12:30:41;99599.41;;;4.92;39.82
40864;BME280;26582;47.524;19.012;2024-01-11T12:33:08;99598.25;;;5.25;39.38
40864;BME280;26582;47.524;19.012;2024-01-11T12:35:35;99599.50;;;5.75;38.38
40864;BME280;26582;47.524;19.012;2024-01-11T12:38:04;99599.72;;;6.77;36.67
40864;BME280;26582;47.524;19.012;2024-01-11T12:40:33;99600.47;;;8.15;34.91
40864;BME280;26582;47.524;19.012;2024-01-11T12:43:00;99589.06;;;9.39;33.29
40864;BME280;26582;47.524;19.012;2024-01-11T12:45:27;99588.16;;;10.68;30.99
40864;BME280;26582;47.524;19.012;2024-01-11T12:47:55;99578.34;;;11.70;29.89
40864;BME280;26582;47.524;19.012;2024-01-11T12:50:22;99579.09;;;12.21;29.18
40864;BME280;26582;47.524;19.012;2024-01-11T12:53:04;99566.19;;;11.97;29.24